sensor_id;sensor_type;location;lat;lon;timestamp;temperature;humidity
57058;DHT22;55017;52.848;6.748;2022-10-23T00:01:26;10.60;99.90
57058;DHT22;55017;52.848;6.748;2022-10-23T00:03:55;10.60;99.90
57058;DHT22;55017;52.848;6.748;2022-10-23T00:06:21;10.70;99.90
57058;DHT22;55017;52.848;6.748;2022-10-23T00:08:47;10.60;99.90
57058;DHT22;55017;52.848;6.748;2022-10-23T00:11:16;10.40;99.90
57058;DHT22;55017;52.848;6.748;2022-10-23T00:13:42;10.50;99.90
57058;DHT22;55017;52.848;6.748;2022-10-23T00:16:08;10.40;99.90
57058;DHT22;55017;52.848;6.748;2022-10-23T00:18:34;10.50;99.90
57058;DHT22;55017;52.848;6.748;2022-10-23T00:21:01;10.50;99.90
57058;DHT22;55017;52.848;6.748;2022-10-23T00:23:26;10.60;99.90
57058;DHT22;55017;52.848;6.748;2022-10-23T00:25:52;10.50;99.90
57058;DHT22;55017;52.848;6.748;2022-10-23T00:28:18;10.40;99.90
57058;DHT22;55017;52.848;6.748;2022-10-23T00:30:43;10.50;99.90
57058;DHT22;55017;52.848;6.748;2022-10-23T00:33:09;10.50;99.90
57058;DHT22;55017;52.848;6.748;2022-10-23T00:35:41;10.50;99.90
57058;DHT22;55017;52.848;6.748;2022-10-23T00:38:08;10.50;99.90
57058;DHT22;55017;52.848;6.748;2022-10-23T00:40:35;10.50;99.90
57058;DHT22;55017;52.848;6.748;2022-10-23T00:43:01;10.50;99.90
57058;DHT22;55017;52.848;6.748;2022-10-23T00:45:31;10.50;99.90
57058;DHT22;55017;52.848;6.748;2022-10-23T00:48:01;10.40;99.90
57058;DHT22;55017;52.848;6.748;2022-10-23T00:50:29;10.50;99.90
57058;DHT22;55017;52.848;6.748;2022-10-23T00:52:58;10.50;99.90
57058;DHT22;55017;52.848;6.748;2022-10-23T00:55:26;10.50;99.90
57058;DHT22;55017;52.848;6.748;2022-10-23T00:57:52;10.40;99.90
57058;DHT22;55017;52.848;6.748;2022-10-23T01:00:25;10.50;99.90
57058;DHT22;55017;52.848;6.748;2022-10-23T01:02:52;10.40;99.90
57058;DHT22;55017;52.848;6.748;2022-10-23T01:05:24;10.50;99.90
57058;DHT22;55017;52.848;6.748;2022-10-23T01:08:01;10.40;99.90
57058;DHT22;55017;52.848;6.748;2022-10-23T01:10:33;10.40;99.90
57058;DHT22;55017;52.848;6.748;2022-10-23T01:13:29;10.50;99.90
57058;DHT22;55017;52.848;6.748;2022-10-23T01:18:43;10.50;99.90
57058;DHT22;55017;52.848;6.748;2022-10-23T01:21:30;10.50;99.90
57058;DHT22;55017;52.848;6.748;2022-10-23T01:24:23;10.40;99.90
57058;DHT22;55017;52.848;6.748;2022-10-23T01:27:17;10.50;99.90
57058;DHT22;55017;52.848;6.748;2022-10-23T01:29:50;10.50;99.90
57058;DHT22;55017;52.848;6.748;2022-10-23T01:32:27;10.40;99.90
57058;DHT22;55017;52.848;6.748;2022-10-23T01:35:19;10.40;99.90
57058;DHT22;55017;52.848;6.748;2022-10-23T01:38:17;10.50;99.90
57058;DHT22;55017;52.848;6.748;2022-10-23T01:44:05;10.40;99.90
57058;DHT22;55017;52.848;6.748;2022-10-23T01:46:34;10.50;99.90
57058;DHT22;55017;52.848;6.748;2022-10-23T01:49:02;10.30;99.90
57058;DHT22;55017;52.848;6.748;2022-10-23T01:51:30;10.30;99.90
57058;DHT22;55017;52.848;6.748;2022-10-23T01:53:58;10.40;99.90
57058;DHT22;55017;52.848;6.748;2022-10-23T01:56:26;10.30;99.90
57058;DHT22;55017;52.848;6.748;2022-10-23T01:58:54;10.20;99.90
57058;DHT22;55017;52.848;6.748;2022-10-23T02:01:23;10.20;99.90
57058;DHT22;55017;52.848;6.748;2022-10-23T02:03:51;10.20;99.90
57058;DHT22;55017;52.848;6.748;2022-10-23T02:06:18;10.30;99.90
57058;DHT22;55017;52.848;6.748;2022-10-23T02:08:43;10.20;99.90
57058;DHT22;55017;52.848;6.748;2022-10-23T02:11:14;10.30;99.90
57058;DHT22;55017;52.848;6.748;2022-10-23T02:14:00;10.30;99.90
57058;DHT22;55017;52.848;6.748;2022-10-23T02:16:49;10.30;99.90
57058;DHT22;55017;52.848;6.748;2022-10-23T02:19:28;10.40;99.90
57058;DHT22;55017;52.848;6.748;2022-10-23T02:22:18;10.30;99.90
57058;DHT22;55017;52.848;6.748;2022-10-23T02:24:52;10.40;99.90
57058;DHT22;55017;52.848;6.748;2022-10-23T02:27:34;10.30;99.90
57058;DHT22;55017;52.848;6.748;2022-10-23T02:30:06;10.30;99.90
57058;DHT22;55017;52.848;6.748;2022-10-23T02:32:33;10.30;99.90
57058;DHT22;55017;52.848;6.748;2022-10-23T02:34:59;10.40;99.90
57058;DHT22;55017;52.848;6.748;2022-10-23T02:37:25;10.40;99.90
57058;DHT22;55017;52.848;6.748;2022-10-23T02:39:51;10.40;99.90
57058;DHT22;55017;52.848;6.748;2022-10-23T02:42:23;10.40;99.90
57058;DHT22;55017;52.848;6.748;2022-10-23T02:53:06;10.30;99.90
57058;DHT22;55017;52.848;6.748;2022-10-23T02:55:59;10.30;99.90
57058;DHT22;55017;52.848;6.748;2022-10-23T02:58:43;10.20;99.90
57058;DHT22;55017;52.848;6.748;2022-10-23T03:01:18;10.20;99.90
57058;DHT22;55017;52.848;6.748;2022-10-23T03:03:51;10.20;99.90
57058;DHT22;55017;52.848;6.748;2022-10-23T03:06:18;10.20;99.90
57058;DHT22;55017;52.848;6.748;2022-10-23T03:08:57;10.20;99.90
57058;DHT22;55017;52.848;6.748;2022-10-23T03:11:24;10.20;99.90
57058;DHT22;55017;52.848;6.748;2022-10-23T03:13:50;10.20;99.90
57058;DHT22;55017;52.848;6.748;2022-10-23T03:16:15;10.30;99.90
57058;DHT22;55017;52.848;6.748;2022-10-23T03:18:41;10.20;99.90
57058;DHT22;55017;52.848;6.748;2022-10-23T03:21:07;10.20;99.90
57058;DHT22;55017;52.848;6.748;2022-10-23T03:23:32;10.20;99.90
57058;DHT22;55017;52.848;6.748;2022-10-23T03:25:58;10.30;99.90
57058;DHT22;55017;52.848;6.748;2022-10-23T03:28:24;10.30;99.90
57058;DHT22;55017;52.848;6.748;2022-10-23T03:30:49;10.30;99.90
57058;DHT22;55017;52.848;6.748;2022-10-23T03:33:15;10.30;99.90
57058;DHT22;55017;52.848;6.748;2022-10-23T03:35:40;10.30;99.90
57058;DHT22;55017;52.848;6.748;2022-10-23T03:38:06;10.40;99.90
57058;DHT22;55017;52.848;6.748;2022-10-23T03:40:32;10.30;99.90
57058;DHT22;55017;52.848;6.748;2022-10-23T03:42:57;10.30;99.90
57058;DHT22;55017;52.848;6.748;2022-10-23T03:45:23;10.30;99.90
57058;DHT22;55017;52.848;6.748;2022-10-23T03:47:49;10.40;99.90
57058;DHT22;55017;52.848;6.748;2022-10-23T03:50:17;10.40;99.90
57058;DHT22;55017;52.848;6.748;2022-10-23T03:52:43;10.40;99.90
57058;DHT22;55017;52.848;6.748;2022-10-23T03:55:09;10.50;99.90
57058;DHT22;55017;52.848;6.748;2022-10-23T03:57:35;10.50;99.90
57058;DHT22;55017;52.848;6.748;2022-10-23T04:00:01;10.50;99.90
57058;DHT22;55017;52.848;6.748;2022-10-23T04:02:27;10.60;99.90
57058;DHT22;55017;52.848;6.748;2022-10-23T04:04:53;10.50;99.90
57058;DHT22;55017;52.848;6.748;2022-10-23T04:07:19;10.50;99.90
57058;DHT22;55017;52.848;6.748;2022-10-23T04:09:44;10.50;99.90
57058;DHT22;55017;52.848;6.748;2022-10-23T04:12:10;10.60;99.90
57058;DHT22;55017;52.848;6.748;2022-10-23T04:14:35;10.50;99.90
57058;DHT22;55017;52.848;6.748;2022-10-23T04:17:01;10.60;99.90
57058;DHT22;55017;52.848;6.748;2022-10-23T04:19:27;10.50;99.90
57058;DHT22;55017;52.848;6.748;2022-10-23T04:21:52;10.60;99.90
57058;DHT22;55017;52.848;6.748;2022-10-23T04:24:18;10.60;99.90
57058;DHT22;55017;52.848;6.748;2022-10-23T04:26:43;10.50;99.90
57058;DHT22;55017;52.848;6.748;2022-10-23T04:29:09;10.50;99.90
57058;DHT22;55017;52.848;6.748;2022-10-23T04:31:35;10.50;99.90
57058;DHT22;55017;52.848;6.748;2022-10-23T04:34:00;10.50;99.90
57058;DHT22;55017;52.848;6.748;2022-10-23T04:36:26;10.40;99.90
57058;DHT22;55017;52.848;6.748;2022-10-23T04:38:51;10.40;99.90
57058;DHT22;55017;52.848;6.748;2022-10-23T04:41:17;10.50;99.90
57058;DHT22;55017;52.848;6.748;2022-10-23T04:43:43;10.50;99.90
57058;DHT22;55017;52.848;6.748;2022-10-23T04:46:09;10.50;99.90
57058;DHT22;55017;52.848;6.748;2022-10-23T04:48:34;10.40;99.90
57058;DHT22;55017;52.848;6.748;2022-10-23T04:51:02;10.40;99.90
57058;DHT22;55017;52.848;6.748;2022-10-23T04:53:29;10.50;99.90
57058;DHT22;55017;52.848;6.748;2022-10-23T04:55:56;10.40;99.90
57058;DHT22;55017;52.848;6.748;2022-10-23T04:58:23;10.40;99.90
57058;DHT22;55017;52.848;6.748;2022-10-23T05:00:50;10.50;99.90
57058;DHT22;55017;52.848;6.748;2022-10-23T05:03:16;10.40;99.90
57058;DHT22;55017;52.848;6.748;2022-10-23T05:05:43;10.40;99.90
57058;DHT22;55017;52.848;6.748;2022-10-23T05:08:09;10.40;99.90
57058;DHT22;55017;52.848;6.748;2022-10-23T05:10:35;10.40;99.90
57058;DHT22;55017;52.848;6.748;2022-10-23T05:13:02;10.50;99.90
57058;DHT22;55017;52.848;6.748;2022-10-23T05:15:27;10.50;99.90
57058;DHT22;55017;52.848;6.748;2022-10-23T05:17:56;10.50;99.90
57058;DHT22;55017;52.848;6.748;2022-10-23T05:20:27;10.40;99.90
57058;DHT22;55017;52.848;6.748;2022-10-23T05:22:55;10.50;99.90
57058;DHT22;55017;52.848;6.748;2022-10-23T05:25:23;10.50;99.90
57058;DHT22;55017;52.848;6.748;2022-10-23T05:27:48;10.30;99.90
57058;DHT22;55017;52.848;6.748;2022-10-23T05:30:14;10.30;99.90
57058;DHT22;55017;52.848;6.748;2022-10-23T05:32:40;10.30;99.90
57058;DHT22;55017;52.848;6.748;2022-10-23T05:35:18;10.40;99.90
57058;DHT22;55017;52.848;6.748;2022-10-23T05:37:46;10.30;99.90
57058;DHT22;55017;52.848;6.748;2022-10-23T05:40:13;10.20;99.90
57058;DHT22;55017;52.848;6.748;2022-10-23T05:42:38;10.20;99.90
57058;DHT22;55017;52.848;6.748;2022-10-23T05:45:04;10.30;99.90
57058;DHT22;55017;52.848;6.748;2022-10-23T05:47:30;10.30;99.90
57058;DHT22;55017;52.848;6.748;2022-10-23T05:49:56;10.30;99.90
57058;DHT22;55017;52.848;6.748;2022-10-23T05:52:22;10.30;99.90
57058;DHT22;55017;52.848;6.748;2022-10-23T05:54:50;10.40;99.90
57058;DHT22;55017;52.848;6.748;2022-10-23T05:57:16;10.30;99.90
57058;DHT22;55017;52.848;6.748;2022-10-23T05:59:42;10.30;99.90
57058;DHT22;55017;52.848;6.748;2022-10-23T06:02:08;10.30;99.90
57058;DHT22;55017;52.848;6.748;2022-10-23T06:04:34;10.40;99.90
57058;DHT22;55017;52.848;6.748;2022-10-23T06:07:00;10.40;99.90
57058;DHT22;55017;52.848;6.748;2022-10-23T06:09:25;10.40;99.90
57058;DHT22;55017;52.848;6.748;2022-10-23T06:11:51;10.40;99.90
57058;DHT22;55017;52.848;6.748;2022-10-23T06:14:16;10.50;99.90
57058;DHT22;55017;52.848;6.748;2022-10-23T06:16:42;10.40;99.90
57058;DHT22;55017;52.848;6.748;2022-10-23T06:19:12;10.50;99.90
57058;DHT22;55017;52.848;6.748;2022-10-23T06:21:38;10.50;99.90
57058;DHT22;55017;52.848;6.748;2022-10-23T06:24:05;10.50;99.90
57058;DHT22;55017;52.848;6.748;2022-10-23T06:26:31;10.50;99.90
57058;DHT22;55017;52.848;6.748;2022-10-23T06:28:57;10.60;99.90
57058;DHT22;55017;52.848;6.748;2022-10-23T06:31:23;10.50;99.90
57058;DHT22;55017;52.848;6.748;2022-10-23T06:33:56;10.60;99.90
57058;DHT22;55017;52.848;6.748;2022-10-23T06:36:22;10.60;99.90
57058;DHT22;55017;52.848;6.748;2022-10-23T06:38:48;10.60;99.90
57058;DHT22;55017;52.848;6.748;2022-10-23T06:41:19;10.60;99.90
57058;DHT22;55017;52.848;6.748;2022-10-23T06:43:50;10.60;99.90
57058;DHT22;55017;52.848;6.748;2022-10-23T06:46:17;10.80;99.90
57058;DHT22;55017;52.848;6.748;2022-10-23T06:48:43;10.70;99.90
57058;DHT22;55017;52.848;6.748;2022-10-23T06:51:11;10.80;99.90
57058;DHT22;55017;52.848;6.748;2022-10-23T06:53:37;10.80;99.90
57058;DHT22;55017;52.848;6.748;2022-10-23T06:56:05;10.80;99.90
57058;DHT22;55017;52.848;6.748;2022-10-23T06:58:31;10.80;99.90
57058;DHT22;55017;52.848;6.748;2022-10-23T07:01:00;10.90;99.90
57058;DHT22;55017;52.848;6.748;2022-10-23T07:03:26;10.90;99.90
57058;DHT22;55017;52.848;6.748;2022-10-23T07:05:52;11.00;99.90
57058;DHT22;55017;52.848;6.748;2022-10-23T07:08:17;11.00;99.90
57058;DHT22;55017;52.848;6.748;2022-10-23T07:10:43;11.00;99.90
57058;DHT22;55017;52.848;6.748;2022-10-23T07:13:10;11.10;99.90
57058;DHT22;55017;52.848;6.748;2022-10-23T07:15:36;11.00;99.90
57058;DHT22;55017;52.848;6.748;2022-10-23T07:18:02;11.10;99.90
57058;DHT22;55017;52.848;6.748;2022-10-23T07:20:28;11.20;99.90
57058;DHT22;55017;52.848;6.748;2022-10-23T07:22:55;11.10;99.90
57058;DHT22;55017;52.848;6.748;2022-10-23T07:25:22;11.30;99.90
57058;DHT22;55017;52.848;6.748;2022-10-23T07:27:48;11.20;99.90
57058;DHT22;55017;52.848;6.748;2022-10-23T07:30:14;11.20;99.90
57058;DHT22;55017;52.848;6.748;2022-10-23T07:32:40;11.30;99.90
57058;DHT22;55017;52.848;6.748;2022-10-23T07:35:07;11.30;99.90
57058;DHT22;55017;52.848;6.748;2022-10-23T07:37:33;11.40;99.90
57058;DHT22;55017;52.848;6.748;2022-10-23T07:39:59;11.40;99.90
57058;DHT22;55017;52.848;6.748;2022-10-23T07:42:24;11.50;99.90
57058;DHT22;55017;52.848;6.748;2022-10-23T07:44:50;11.50;99.90
57058;DHT22;55017;52.848;6.748;2022-10-23T07:47:15;11.60;99.90
57058;DHT22;55017;52.848;6.748;2022-10-23T07:49:41;11.60;99.90
57058;DHT22;55017;52.848;6.748;2022-10-23T07:52:07;11.60;99.90
57058;DHT22;55017;52.848;6.748;2022-10-23T07:54:33;11.60;99.90
57058;DHT22;55017;52.848;6.748;2022-10-23T07:56:59;11.60;99.90
57058;DHT22;55017;52.848;6.748;2022-10-23T07:59:25;11.70;99.90
57058;DHT22;55017;52.848;6.748;2022-10-23T08:01:50;11.80;99.90
57058;DHT22;55017;52.848;6.748;2022-10-23T08:04:17;11.80;99.90
57058;DHT22;55017;52.848;6.748;2022-10-23T08:06:43;11.80;99.90
57058;DHT22;55017;52.848;6.748;2022-10-23T08:09:09;11.90;99.90
57058;DHT22;55017;52.848;6.748;2022-10-23T08:11:35;11.90;99.90
57058;DHT22;55017;52.848;6.748;2022-10-23T08:14:02;12.00;99.90
57058;DHT22;55017;52.848;6.748;2022-10-23T08:16:29;12.00;99.90
57058;DHT22;55017;52.848;6.748;2022-10-23T08:18:55;12.00;99.90
57058;DHT22;55017;52.848;6.748;2022-10-23T08:21:21;12.10;99.90
57058;DHT22;55017;52.848;6.748;2022-10-23T08:23:47;12.10;99.90
57058;DHT22;55017;52.848;6.748;2022-10-23T08:26:13;12.30;99.90
57058;DHT22;55017;52.848;6.748;2022-10-23T08:28:38;12.20;99.90
57058;DHT22;55017;52.848;6.748;2022-10-23T08:31:15;12.30;99.90
57058;DHT22;55017;52.848;6.748;2022-10-23T08:33:41;12.30;99.90
57058;DHT22;55017;52.848;6.748;2022-10-23T08:36:27;12.30;99.90
57058;DHT22;55017;52.848;6.748;2022-10-23T08:38:56;12.50;99.90
57058;DHT22;55017;52.848;6.748;2022-10-23T08:41:36;12.50;99.90
57058;DHT22;55017;52.848;6.748;2022-10-23T08:44:37;12.60;99.90
57058;DHT22;55017;52.848;6.748;2022-10-23T08:47:12;12.60;99.90
57058;DHT22;55017;52.848;6.748;2022-10-23T08:55:35;12.80;99.90
57058;DHT22;55017;52.848;6.748;2022-10-23T08:58:09;12.90;99.90
57058;DHT22;55017;52.848;6.748;2022-10-23T09:00:40;12.90;99.90
57058;DHT22;55017;52.848;6.748;2022-10-23T09:03:10;13.20;99.90
57058;DHT22;55017;52.848;6.748;2022-10-23T09:11:37;13.40;99.90
57058;DHT22;55017;52.848;6.748;2022-10-23T09:17:22;13.50;99.90
57058;DHT22;55017;52.848;6.748;2022-10-23T09:20:04;13.70;99.90
57058;DHT22;55017;52.848;6.748;2022-10-23T09:22:32;13.80;99.90
57058;DHT22;55017;52.848;6.748;2022-10-23T09:24:57;13.90;99.90
57058;DHT22;55017;52.848;6.748;2022-10-23T09:27:23;13.90;99.90
57058;DHT22;55017;52.848;6.748;2022-10-23T09:29:52;14.00;99.90
57058;DHT22;55017;52.848;6.748;2022-10-23T09:32:19;14.10;99.90
57058;DHT22;55017;52.848;6.748;2022-10-23T09:34:53;14.10;99.90
57058;DHT22;55017;52.848;6.748;2022-10-23T09:37:22;14.30;99.90
57058;DHT22;55017;52.848;6.748;2022-10-23T09:39:48;14.30;99.90
57058;DHT22;55017;52.848;6.748;2022-10-23T09:42:22;14.30;99.90
57058;DHT22;55017;52.848;6.748;2022-10-23T09:44:52;14.40;99.90
57058;DHT22;55017;52.848;6.748;2022-10-23T09:47:19;14.50;99.90
57058;DHT22;55017;52.848;6.748;2022-10-23T09:49:49;14.60;99.90
57058;DHT22;55017;52.848;6.748;2022-10-23T09:54:46;14.70;99.90
57058;DHT22;55017;52.848;6.748;2022-10-23T09:57:40;14.70;99.90
57058;DHT22;55017;52.848;6.748;2022-10-23T10:02:39;14.80;99.90
57058;DHT22;55017;52.848;6.748;2022-10-23T10:05:30;14.90;99.90
57058;DHT22;55017;52.848;6.748;2022-10-23T10:13:53;15.10;99.90
57058;DHT22;55017;52.848;6.748;2022-10-23T10:16:45;15.10;99.90
57058;DHT22;55017;52.848;6.748;2022-10-23T10:22:31;15.10;99.90
57058;DHT22;55017;52.848;6.748;2022-10-23T10:25:22;15.20;99.90
57058;DHT22;55017;52.848;6.748;2022-10-23T10:31:55;15.40;99.90
57058;DHT22;55017;52.848;6.748;2022-10-23T10:40:30;15.80;99.90
57058;DHT22;55017;52.848;6.748;2022-10-23T10:48:59;15.60;99.90
57058;DHT22;55017;52.848;6.748;2022-10-23T10:54:14;15.60;99.90
57058;DHT22;55017;52.848;6.748;2022-10-23T10:56:46;15.60;99.90
57058;DHT22;55017;52.848;6.748;2022-10-23T10:59:36;15.50;99.90
57058;DHT22;55017;52.848;6.748;2022-10-23T11:02:26;15.50;99.90
57058;DHT22;55017;52.848;6.748;2022-10-23T11:07:25;15.60;99.90
57058;DHT22;55017;52.848;6.748;2022-10-23T11:09:55;15.50;99.90
57058;DHT22;55017;52.848;6.748;2022-10-23T11:12:25;15.50;99.90
57058;DHT22;55017;52.848;6.748;2022-10-23T11:14:51;15.50;99.90
57058;DHT22;55017;52.848;6.748;2022-10-23T11:17:38;15.50;99.90
57058;DHT22;55017;52.848;6.748;2022-10-23T11:20:25;15.50;99.90
57058;DHT22;55017;52.848;6.748;2022-10-23T11:26:10;15.40;99.90
57058;DHT22;55017;52.848;6.748;2022-10-23T11:37:04;15.40;99.90
57058;DHT22;55017;52.848;6.748;2022-10-23T11:39:33;15.40;99.90
57058;DHT22;55017;52.848;6.748;2022-10-23T11:42:13;15.40;99.90
57058;DHT22;55017;52.848;6.748;2022-10-23T11:44:49;15.50;99.90
57058;DHT22;55017;52.848;6.748;2022-10-23T11:47:33;15.60;99.90
57058;DHT22;55017;52.848;6.748;2022-10-23T11:52:35;15.60;99.90
57058;DHT22;55017;52.848;6.748;2022-10-23T11:57:27;15.60;99.90
57058;DHT22;55017;52.848;6.748;2022-10-23T11:59:55;15.70;99.90
57058;DHT22;55017;52.848;6.748;2022-10-23T12:02:26;15.70;99.90
57058;DHT22;55017;52.848;6.748;2022-10-23T12:04:57;15.70;99.90
57058;DHT22;55017;52.848;6.748;2022-10-23T12:07:33;15.80;99.90
57058;DHT22;55017;52.848;6.748;2022-10-23T12:10:25;15.80;99.90
57058;DHT22;55017;52.848;6.748;2022-10-23T12:12:57;15.80;99.90
57058;DHT22;55017;52.848;6.748;2022-10-23T12:15:24;15.80;99.90
57058;DHT22;55017;52.848;6.748;2022-10-23T12:17:52;15.90;99.90
57058;DHT22;55017;52.848;6.748;2022-10-23T12:20:34;15.90;99.90
57058;DHT22;55017;52.848;6.748;2022-10-23T12:37:30;16.00;99.90
57058;DHT22;55017;52.848;6.748;2022-10-23T12:40:06;16.10;99.90
57058;DHT22;55017;52.848;6.748;2022-10-23T12:42:33;16.00;99.90
57058;DHT22;55017;52.848;6.748;2022-10-23T12:47:45;16.10;99.90
57058;DHT22;55017;52.848;6.748;2022-10-23T12:50:20;16.10;99.90
57058;DHT22;55017;52.848;6.748;2022-10-23T12:55:25;16.00;99.90
57058;DHT22;55017;52.848;6.748;2022-10-23T12:57:52;16.00;99.90
57058;DHT22;55017;52.848;6.748;2022-10-23T13:00:20;16.10;99.90
57058;DHT22;55017;52.848;6.748;2022-10-23T13:02:56;16.00;99.90
57058;DHT22;55017;52.848;6.748;2022-10-23T13:05:22;15.90;99.90
57058;DHT22;55017;52.848;6.748;2022-10-23T13:07:49;15.90;99.90
57058;DHT22;55017;52.848;6.748;2022-10-23T13:10:18;16.00;99.90
57058;DHT22;55017;52.848;6.748;2022-10-23T13:13:16;16.10;99.90
57058;DHT22;55017;52.848;6.748;2022-10-23T13:15:43;15.90;99.90
57058;DHT22;55017;52.848;6.748;2022-10-23T13:18:11;15.90;99.90
57058;DHT22;55017;52.848;6.748;2022-10-23T13:23:28;15.90;99.90
57058;DHT22;55017;52.848;6.748;2022-10-23T13:26:00;15.90;99.90
57058;DHT22;55017;52.848;6.748;2022-10-23T13:28:28;16.00;99.90
57058;DHT22;55017;52.848;6.748;2022-10-23T13:33:30;16.10;99.90
57058;DHT22;55017;52.848;6.748;2022-10-23T13:36:20;16.00;99.90
57058;DHT22;55017;52.848;6.748;2022-10-23T13:41:38;16.20;99.90
57058;DHT22;55017;52.848;6.748;2022-10-23T13:44:04;16.20;99.90
57058;DHT22;55017;52.848;6.748;2022-10-23T13:46:30;16.20;99.90
57058;DHT22;55017;52.848;6.748;2022-10-23T13:48:56;16.20;99.90
57058;DHT22;55017;52.848;6.748;2022-10-23T13:51:22;16.30;99.90
57058;DHT22;55017;52.848;6.748;2022-10-23T13:53:48;16.30;99.90
57058;DHT22;55017;52.848;6.748;2022-10-23T13:56:17;16.20;99.90
57058;DHT22;55017;52.848;6.748;2022-10-23T13:58:43;16.20;99.90
57058;DHT22;55017;52.848;6.748;2022-10-23T14:01:29;16.30;99.90
57058;DHT22;55017;52.848;6.748;2022-10-23T14:03:56;16.30;99.90
57058;DHT22;55017;52.848;6.748;2022-10-23T14:06:22;16.30;99.90
57058;DHT22;55017;52.848;6.748;2022-10-23T14:08:47;16.30;99.90
57058;DHT22;55017;52.848;6.748;2022-10-23T14:11:15;16.20;99.90
57058;DHT22;55017;52.848;6.748;2022-10-23T14:13:41;16.20;99.90
57058;DHT22;55017;52.848;6.748;2022-10-23T14:16:09;16.30;99.90
57058;DHT22;55017;52.848;6.748;2022-10-23T14:18:35;16.30;99.90
57058;DHT22;55017;52.848;6.748;2022-10-23T14:21:02;16.20;99.90
57058;DHT22;55017;52.848;6.748;2022-10-23T14:23:28;16.30;99.90
57058;DHT22;55017;52.848;6.748;2022-10-23T14:26:01;16.30;99.90
57058;DHT22;55017;52.848;6.748;2022-10-23T14:28:26;16.20;99.90
57058;DHT22;55017;52.848;6.748;2022-10-23T14:30:52;16.30;99.90
57058;DHT22;55017;52.848;6.748;2022-10-23T14:33:17;16.10;99.90
57058;DHT22;55017;52.848;6.748;2022-10-23T14:35:43;16.10;99.90
57058;DHT22;55017;52.848;6.748;2022-10-23T14:38:09;16.10;99.90
57058;DHT22;55017;52.848;6.748;2022-10-23T14:40:37;16.20;99.90
57058;DHT22;55017;52.848;6.748;2022-10-23T14:43:04;16.20;99.90
57058;DHT22;55017;52.848;6.748;2022-10-23T14:45:29;16.20;99.90
57058;DHT22;55017;52.848;6.748;2022-10-23T14:47:55;16.20;99.90
57058;DHT22;55017;52.848;6.748;2022-10-23T14:50:21;16.20;99.90
57058;DHT22;55017;52.848;6.748;2022-10-23T14:52:46;16.20;99.90
57058;DHT22;55017;52.848;6.748;2022-10-23T14:55:12;16.40;99.90
57058;DHT22;55017;52.848;6.748;2022-10-23T14:57:38;16.30;99.90
57058;DHT22;55017;52.848;6.748;2022-10-23T15:00:05;16.20;99.90
57058;DHT22;55017;52.848;6.748;2022-10-23T15:02:31;16.20;99.90
57058;DHT22;55017;52.848;6.748;2022-10-23T15:04:56;16.30;99.90
57058;DHT22;55017;52.848;6.748;2022-10-23T15:07:22;16.20;99.90
57058;DHT22;55017;52.848;6.748;2022-10-23T15:09:48;16.20;99.90
57058;DHT22;55017;52.848;6.748;2022-10-23T15:12:16;16.20;99.90
57058;DHT22;55017;52.848;6.748;2022-10-23T15:14:42;16.10;99.90
57058;DHT22;55017;52.848;6.748;2022-10-23T15:17:08;16.20;99.90
57058;DHT22;55017;52.848;6.748;2022-10-23T15:19:33;16.10;99.90
57058;DHT22;55017;52.848;6.748;2022-10-23T15:21:59;16.10;99.90
57058;DHT22;55017;52.848;6.748;2022-10-23T15:24:24;16.10;99.90
57058;DHT22;55017;52.848;6.748;2022-10-23T15:26:51;16.10;99.90
57058;DHT22;55017;52.848;6.748;2022-10-23T15:29:17;16.10;99.90
57058;DHT22;55017;52.848;6.748;2022-10-23T15:34:18;16.10;99.90
57058;DHT22;55017;52.848;6.748;2022-10-23T15:36:45;16.10;99.90
57058;DHT22;55017;52.848;6.748;2022-10-23T15:39:12;16.10;99.90
57058;DHT22;55017;52.848;6.748;2022-10-23T15:41:40;16.10;99.90
57058;DHT22;55017;52.848;6.748;2022-10-23T15:44:06;16.10;99.90
57058;DHT22;55017;52.848;6.748;2022-10-23T15:46:34;16.10;99.90
57058;DHT22;55017;52.848;6.748;2022-10-23T15:48:59;16.10;99.90
57058;DHT22;55017;52.848;6.748;2022-10-23T15:51:26;16.10;99.90
57058;DHT22;55017;52.848;6.748;2022-10-23T15:53:51;16.00;99.90
57058;DHT22;55017;52.848;6.748;2022-10-23T15:56:17;16.10;99.90
57058;DHT22;55017;52.848;6.748;2022-10-23T15:58:43;16.10;99.90
57058;DHT22;55017;52.848;6.748;2022-10-23T16:01:08;16.00;99.90
57058;DHT22;55017;52.848;6.748;2022-10-23T16:03:36;16.00;99.90
57058;DHT22;55017;52.848;6.748;2022-10-23T16:06:07;16.00;99.90
57058;DHT22;55017;52.848;6.748;2022-10-23T16:08:33;15.90;99.90
57058;DHT22;55017;52.848;6.748;2022-10-23T16:10:59;15.80;99.90
57058;DHT22;55017;52.848;6.748;2022-10-23T16:13:25;15.80;99.90
57058;DHT22;55017;52.848;6.748;2022-10-23T16:15:51;15.80;99.90
57058;DHT22;55017;52.848;6.748;2022-10-23T16:18:19;15.80;99.90
57058;DHT22;55017;52.848;6.748;2022-10-23T16:20:45;15.70;99.90
57058;DHT22;55017;52.848;6.748;2022-10-23T16:23:10;15.80;99.90
57058;DHT22;55017;52.848;6.748;2022-10-23T16:25:36;15.90;99.90
57058;DHT22;55017;52.848;6.748;2022-10-23T16:28:02;15.80;99.90
57058;DHT22;55017;52.848;6.748;2022-10-23T16:30:28;15.70;99.90
57058;DHT22;55017;52.848;6.748;2022-10-23T16:32:54;15.80;99.90
57058;DHT22;55017;52.848;6.748;2022-10-23T16:35:20;15.70;99.90
57058;DHT22;55017;52.848;6.748;2022-10-23T16:37:46;15.80;99.90
57058;DHT22;55017;52.848;6.748;2022-10-23T16:40:12;15.80;99.90
57058;DHT22;55017;52.848;6.748;2022-10-23T16:42:37;15.70;99.90
57058;DHT22;55017;52.848;6.748;2022-10-23T16:45:05;15.60;99.90
57058;DHT22;55017;52.848;6.748;2022-10-23T16:47:31;15.60;99.90
57058;DHT22;55017;52.848;6.748;2022-10-23T16:49:57;15.60;99.90
57058;DHT22;55017;52.848;6.748;2022-10-23T16:52:24;15.70;99.90
57058;DHT22;55017;52.848;6.748;2022-10-23T16:54:50;15.60;99.90
57058;DHT22;55017;52.848;6.748;2022-10-23T16:57:15;15.60;99.90
57058;DHT22;55017;52.848;6.748;2022-10-23T16:59:42;15.60;99.90
57058;DHT22;55017;52.848;6.748;2022-10-23T17:02:10;15.60;99.90
57058;DHT22;55017;52.848;6.748;2022-10-23T17:04:36;15.70;99.90
57058;DHT22;55017;52.848;6.748;2022-10-23T17:07:03;15.60;99.90
57058;DHT22;55017;52.848;6.748;2022-10-23T17:09:29;15.60;99.90
57058;DHT22;55017;52.848;6.748;2022-10-23T17:11:57;15.70;99.90
57058;DHT22;55017;52.848;6.748;2022-10-23T17:14:23;15.60;99.90
57058;DHT22;55017;52.848;6.748;2022-10-23T17:16:57;15.60;99.90
57058;DHT22;55017;52.848;6.748;2022-10-23T17:19:25;15.70;99.90
57058;DHT22;55017;52.848;6.748;2022-10-23T17:21:52;15.70;99.90
57058;DHT22;55017;52.848;6.748;2022-10-23T17:24:18;15.70;99.90
57058;DHT22;55017;52.848;6.748;2022-10-23T17:26:44;15.70;99.90
57058;DHT22;55017;52.848;6.748;2022-10-23T17:29:11;15.70;99.90
57058;DHT22;55017;52.848;6.748;2022-10-23T17:31:41;15.70;99.90
57058;DHT22;55017;52.848;6.748;2022-10-23T17:34:09;15.70;99.90